createdAt,value
2019-03-12T00:01:21.157Z,100494.06
2019-03-12T00:03:51.979Z,100489.70
2019-03-12T00:06:22.925Z,100488.52
2019-03-12T00:08:53.527Z,100494.63
2019-03-12T00:11:24.263Z,100493.70
2019-03-12T00:13:54.930Z,100502.60
2019-03-12T00:16:26.032Z,100508.84
2019-03-12T00:18:56.779Z,100508.53
2019-03-12T00:21:27.399Z,100518.08
2019-03-12T00:23:58.467Z,100516.81
2019-03-12T00:26:29.098Z,100522.89
2019-03-12T00:28:59.772Z,100520.16
2019-03-12T00:31:31.063Z,100529.61
2019-03-12T00:34:01.879Z,100527.72
2019-03-12T00:36:32.643Z,100529.19
2019-03-12T00:39:03.787Z,100527.72
2019-03-12T00:41:36.607Z,100528.77
2019-03-12T00:44:07.564Z,100530.17
2019-03-12T00:46:38.471Z,100530.88
2019-03-12T00:49:09.303Z,100537.38
2019-03-12T00:51:40.127Z,100540.06
2019-03-12T00:54:11.023Z,100538.87
2019-03-12T00:56:41.903Z,100540.55
2019-03-12T00:59:12.674Z,100533.64
2019-03-12T01:01:43.472Z,100535.45
2019-03-12T01:04:14.116Z,100540.91
2019-03-12T01:06:45.009Z,100540.06
2019-03-12T01:09:15.876Z,100536.41
2019-03-12T01:11:46.581Z,100535.30
2019-03-12T01:14:17.764Z,100525.84
2019-03-12T01:16:48.590Z,100526.26
2019-03-12T01:19:19.479Z,100522.01
2019-03-12T01:21:50.335Z,100525.63
2019-03-12T01:24:21.209Z,100523.67
2019-03-12T01:26:51.936Z,100526.19
2019-03-12T01:29:22.720Z,100531.03
2019-03-12T01:31:53.511Z,100526.13
2019-03-12T01:34:24.671Z,100526.56
2019-03-12T01:36:55.595Z,100535.67
2019-03-12T01:39:26.396Z,100541.06
2019-03-12T01:41:57.180Z,100541.95
2019-03-12T01:44:27.869Z,100548.05
2019-03-12T01:46:58.762Z,100550.35
2019-03-12T01:49:29.431Z,100545.80
2019-03-12T01:52:00.217Z,100539.77
2019-03-12T01:54:31.136Z,100544.02
2019-03-12T01:57:02.013Z,100534.98
2019-03-12T01:59:32.942Z,100531.63
2019-03-12T02:02:03.822Z,100532.32
2019-03-12T02:04:34.647Z,100536.31
2019-03-12T02:07:05.211Z,100533.35
2019-03-12T02:09:35.911Z,100530.06
2019-03-12T02:12:06.823Z,100532.42
2019-03-12T02:14:37.556Z,100526.53
2019-03-12T02:17:08.255Z,100522.47
2019-03-12T02:19:39.156Z,100525.02
2019-03-12T02:22:09.923Z,100519.17
2019-03-12T02:24:52.282Z,100519.47
2019-03-12T02:27:13.510Z,100517.44
2019-03-12T02:29:44.224Z,100512.89
2019-03-12T02:32:15.065Z,100515.64
2019-03-12T02:34:45.954Z,100521.20
2019-03-12T02:37:16.846Z,100515.47
2019-03-12T02:39:47.591Z,100518.31
2019-03-12T02:42:18.273Z,100520.42
2019-03-12T02:44:49.083Z,100516.28
2019-03-12T02:47:19.633Z,100508.73
2019-03-12T02:49:50.426Z,100502.79
2019-03-12T02:52:21.505Z,100493.33
2019-03-12T02:54:52.228Z,100501.69
2019-03-12T02:57:23.177Z,100499.09
2019-03-12T02:59:54.108Z,100496.22
2019-03-12T03:02:24.983Z,100492.15
2019-03-12T03:04:56.016Z,100478.21
2019-03-12T03:07:44.409Z,100483.20
2019-03-12T03:10:15.701Z,100489.92
2019-03-12T03:12:46.583Z,100494.05
2019-03-12T03:15:19.398Z,100495.38
2019-03-12T03:17:50.237Z,100500.22
2019-03-12T03:20:21.271Z,100497.34
2019-03-12T03:22:51.978Z,100500.91
2019-03-12T03:25:22.872Z,100501.83
2019-03-12T03:27:53.550Z,100505.95
2019-03-12T03:30:25.019Z,100502.98
2019-03-12T03:32:56.002Z,100494.93
2019-03-12T03:35:26.771Z,100494.30
2019-03-12T03:37:57.710Z,100483.81
2019-03-12T03:40:28.623Z,100481.44
2019-03-12T03:42:59.624Z,100470.87
2019-03-12T03:45:31.288Z,100470.08
2019-03-12T03:48:02.224Z,100465.13
2019-03-12T03:50:33.509Z,100458.96
2019-03-12T03:53:04.373Z,100455.80
2019-03-12T03:55:35.184Z,100457.21
2019-03-12T03:58:05.986Z,100465.50
2019-03-12T04:00:36.941Z,100472.66
2019-03-12T04:03:07.719Z,100456.56
2019-03-12T04:05:38.485Z,100462.42
2019-03-12T04:08:10.345Z,100457.95
2019-03-12T04:10:41.215Z,100454.27
2019-03-12T04:13:11.986Z,100455.69
2019-03-12T04:15:43.017Z,100453.45
2019-03-12T04:18:13.710Z,100445.68
2019-03-12T04:20:44.459Z,100444.97
2019-03-12T04:23:16.217Z,100440.80
2019-03-12T04:25:47.182Z,100433.02
2019-03-12T04:28:17.908Z,100429.87
2019-03-12T04:30:48.689Z,100420.86
2019-03-12T04:33:55.171Z,100414.75
2019-03-12T04:36:27.021Z,100404.61
2019-03-12T04:38:57.906Z,100395.22
2019-03-12T04:41:28.762Z,100390.42
2019-03-12T04:43:59.710Z,100384.17
2019-03-12T04:46:30.438Z,100387.05
2019-03-12T04:49:01.339Z,100390.00
2019-03-12T04:51:32.175Z,100383.05
2019-03-12T04:54:03.079Z,100380.53
2019-03-12T04:56:33.851Z,100381.01
2019-03-12T04:59:04.719Z,100373.41
2019-03-12T05:01:35.490Z,100373.66
2019-03-12T05:04:06.388Z,100374.03
2019-03-12T05:06:37.259Z,100369.59
2019-03-12T05:09:09.535Z,100370.36
2019-03-12T05:11:40.519Z,100366.94
2019-03-12T05:14:43.461Z,100365.66
2019-03-12T05:17:28.330Z,100364.25
2019-03-12T05:19:59.140Z,100358.56
2019-03-12T05:22:29.903Z,100349.08
2019-03-12T05:25:00.697Z,100347.12
2019-03-12T05:27:31.666Z,100338.31
2019-03-12T05:30:02.442Z,100334.77
2019-03-12T05:32:34.578Z,100338.34
2019-03-12T05:35:05.955Z,100332.27
2019-03-12T05:37:36.827Z,100328.48
2019-03-12T05:40:08.232Z,100336.63
2019-03-12T05:42:39.109Z,100323.78
2019-03-12T05:45:10.198Z,100331.31
2019-03-12T05:47:40.984Z,100318.84
2019-03-12T05:50:12.082Z,100314.53
2019-03-12T05:52:42.899Z,100315.71
2019-03-12T05:55:14.648Z,100313.99
2019-03-12T05:57:45.523Z,100322.61
2019-03-12T06:00:16.807Z,100324.50
2019-03-12T06:02:47.824Z,100326.88
2019-03-12T06:05:18.687Z,100321.28
2019-03-12T06:07:49.789Z,100327.75
2019-03-12T06:10:20.509Z,100325.57
2019-03-12T06:12:51.192Z,100317.17
2019-03-12T06:15:22.186Z,100314.18
2019-03-12T06:17:52.898Z,100324.72
2019-03-12T06:20:23.572Z,100316.90
2019-03-12T06:22:54.486Z,100313.08
2019-03-12T06:25:25.648Z,100313.64
2019-03-12T06:27:56.315Z,100308.37
2019-03-12T06:30:28.579Z,100309.52
2019-03-12T06:33:05.192Z,100303.30
2019-03-12T06:35:43.131Z,100302.75
2019-03-12T06:38:32.035Z,100294.64
2019-03-12T06:41:08.374Z,100298.26
2019-03-12T06:43:53.392Z,100298.66
2019-03-12T06:46:45.448Z,100294.07
2019-03-12T06:49:38.048Z,100293.34
2019-03-12T06:52:26.353Z,100298.43
2019-03-12T06:55:15.098Z,100291.42
2019-03-12T06:58:27.288Z,100284.77
2019-03-12T07:01:22.897Z,100280.41
2019-03-12T07:04:13.514Z,100267.47
2019-03-12T07:07:12.839Z,100269.07
2019-03-12T07:10:02.705Z,100262.79
2019-03-12T07:12:57.439Z,100253.75
2019-03-12T07:15:36.106Z,100255.89
2019-03-12T07:18:14.458Z,100254.45
2019-03-12T07:21:13.171Z,100240.23
2019-03-12T07:24:18.152Z,100239.74
2019-03-12T07:27:02.733Z,100225.98
2019-03-12T07:29:55.203Z,100234.94
2019-03-12T07:32:47.727Z,100229.34
2019-03-12T07:35:52.415Z,100217.98
2019-03-12T07:38:35.267Z,100212.81
2019-03-12T07:41:25.171Z,100205.09
2019-03-12T07:44:15.006Z,100201.70
2019-03-12T07:47:10.713Z,100199.28
2019-03-12T07:50:02.033Z,100204.88
2019-03-12T07:53:00.700Z,100204.44
2019-03-12T07:55:46.255Z,100196.69
2019-03-12T07:58:44.923Z,100192.09
2019-03-12T08:01:33.597Z,100197.53
2019-03-12T08:04:26.551Z,100192.24
2019-03-12T08:07:13.185Z,100187.83
2019-03-12T08:09:51.210Z,100180.73
2019-03-12T08:12:41.049Z,100177.47
2019-03-12T08:15:23.414Z,100180.98
2019-03-12T08:18:13.035Z,100172.94
2019-03-12T08:21:07.473Z,100173.52
2019-03-12T08:23:56.814Z,100168.97
2019-03-12T08:26:38.842Z,100169.48
2019-03-12T08:29:37.734Z,100157.59
2019-03-12T08:32:14.300Z,100151.41
2019-03-12T08:35:03.399Z,100142.06
2019-03-12T08:37:44.850Z,100135.07
2019-03-12T08:40:34.489Z,100124.05
2019-03-12T08:43:13.965Z,100118.55
2019-03-12T08:45:53.403Z,100111.52
2019-03-12T08:48:43.101Z,100106.53
2019-03-12T08:51:30.718Z,100094.28
2019-03-12T08:54:23.614Z,100089.55
2019-03-12T08:57:14.059Z,100072.83
2019-03-12T09:00:15.815Z,100072.08
2019-03-12T09:02:59.608Z,100072.01
2019-03-12T09:05:52.164Z,100064.39
2019-03-12T09:08:39.481Z,100055.22
2019-03-12T09:11:29.136Z,100049.52
2019-03-12T09:14:37.220Z,100043.28
2019-03-12T09:17:24.235Z,100038.41
2019-03-12T09:20:19.341Z,100032.05
2019-03-12T09:23:14.847Z,100027.22
2019-03-12T09:26:13.403Z,100018.98
2019-03-12T09:28:53.643Z,100012.28
2019-03-12T09:31:33.441Z,99996.92
2019-03-12T09:34:18.350Z,99993.28
2019-03-12T09:37:07.998Z,99986.80
2019-03-12T09:39:48.189Z,99980.80
2019-03-12T09:42:37.935Z,99968.66
2019-03-12T09:45:19.610Z,99964.05
2019-03-12T09:48:15.429Z,99964.33
2019-03-12T09:51:11.113Z,99956.13
2019-03-12T09:53:54.377Z,99944.44
2019-03-12T09:56:37.032Z,99939.03
2019-03-12T09:59:26.787Z,99944.14
2019-03-12T10:02:25.479Z,99938.02
2019-03-12T10:05:02.651Z,99929.02
2019-03-12T10:08:07.588Z,99926.05
2019-03-12T10:10:54.298Z,99917.68
2019-03-12T10:13:37.945Z,99920.83
2019-03-12T10:16:42.894Z,99912.86
2019-03-12T10:19:50.569Z,99905.72
2019-03-12T10:22:38.727Z,99899.19
2019-03-12T10:25:27.746Z,99901.48
2019-03-12T10:28:18.932Z,99894.16
2019-03-12T10:31:14.713Z,99886.96
2019-03-12T10:34:10.526Z,99879.50
2019-03-12T10:36:46.574Z,99878.22
2019-03-12T10:40:25.028Z,99883.91
2019-03-12T10:43:11.300Z,99876.86
2019-03-12T10:46:01.530Z,99873.32
2019-03-12T10:48:33.122Z,99865.55
2019-03-12T10:51:04.038Z,99864.73
2019-03-12T10:53:36.131Z,99860.83
2019-03-12T10:56:06.846Z,99854.33
2019-03-12T10:58:37.721Z,99850.52
2019-03-12T11:01:08.620Z,99855.27
2019-03-12T11:03:39.538Z,99849.66
2019-03-12T11:06:10.610Z,99840.31
2019-03-12T11:08:41.407Z,99833.09
2019-03-12T11:11:12.166Z,99820.88
2019-03-12T11:13:43.236Z,99813.02
2019-03-12T11:16:13.977Z,99811.95
2019-03-12T11:18:44.771Z,99806.30
2019-03-12T11:21:15.522Z,99792.83
2019-03-12T11:23:46.724Z,99782.16
2019-03-12T11:26:17.492Z,99771.91
2019-03-12T11:28:48.269Z,99769.29
2019-03-12T11:31:19.309Z,99763.70
2019-03-12T11:33:50.240Z,99761.34
2019-03-12T11:36:21.129Z,99752.92
2019-03-12T11:38:52.018Z,99749.14
2019-03-12T11:41:23.087Z,99744.66
2019-03-12T11:43:53.861Z,99746.19
2019-03-12T11:46:24.821Z,99729.34
2019-03-12T11:48:55.668Z,99729.05
2019-03-12T11:51:26.602Z,99724.90
2019-03-12T11:53:57.312Z,99716.00
2019-03-12T11:56:28.255Z,99708.17
2019-03-12T11:58:58.882Z,99706.08
2019-03-12T12:01:30.317Z,99697.94
2019-03-12T12:04:01.165Z,99682.30
2019-03-12T12:06:31.925Z,99686.85
2019-03-12T12:09:02.913Z,99680.00
2019-03-12T12:11:35.364Z,99676.34
2019-03-12T12:14:06.284Z,99661.12
2019-03-12T12:16:37.271Z,99655.22
2019-03-12T12:19:08.323Z,99649.41
2019-03-12T12:21:39.399Z,99638.79
2019-03-12T12:24:10.111Z,99627.45
2019-03-12T12:26:41.006Z,99618.31
2019-03-12T12:29:11.886Z,99611.38
2019-03-12T12:31:42.867Z,99603.79
2019-03-12T12:34:13.559Z,99595.05
2019-03-12T12:36:44.338Z,99584.45
2019-03-12T12:39:15.028Z,99574.48
2019-03-12T12:41:45.906Z,99563.31
2019-03-12T12:44:16.623Z,99568.28
2019-03-12T12:46:47.516Z,99562.41
2019-03-12T12:49:18.408Z,99551.29
2019-03-12T12:51:49.545Z,99539.23
2019-03-12T12:54:20.261Z,99536.26
2019-03-12T12:56:51.227Z,99524.10
2019-03-12T12:59:22.052Z,99521.45
2019-03-12T13:01:53.576Z,99512.59
2019-03-12T13:04:24.465Z,99503.75
2019-03-12T13:06:55.320Z,99494.30
2019-03-12T13:09:26.080Z,99490.38
2019-03-12T13:11:57.351Z,99475.84
2019-03-12T13:14:40.722Z,99470.87
2019-03-12T13:17:00.507Z,99461.59
2019-03-12T13:19:31.445Z,99456.34
2019-03-12T13:22:02.275Z,99450.94
2019-03-12T13:24:33.049Z,99438.47
2019-03-12T13:27:04.239Z,99435.92
2019-03-12T13:29:35.159Z,99427.48
2019-03-12T13:32:13.488Z,99419.23
2019-03-12T13:34:38.819Z,99415.63
2019-03-12T13:37:09.686Z,99408.36
2019-03-12T13:39:40.497Z,99408.64
2019-03-12T13:42:11.156Z,99388.81
2019-03-12T13:44:41.837Z,99386.04
2019-03-12T13:47:12.798Z,99377.09
2019-03-12T13:49:43.588Z,99372.52
2019-03-12T13:52:14.520Z,99358.82
2019-03-12T13:54:45.381Z,99357.14
2019-03-12T13:57:16.247Z,99352.31
2019-03-12T13:59:47.056Z,99347.38
2019-03-12T14:02:17.946Z,99337.30
2019-03-12T14:04:48.903Z,99328.25
2019-03-12T14:07:19.660Z,99318.34
2019-03-12T14:09:50.383Z,99306.67
2019-03-12T14:12:21.533Z,99299.12
2019-03-12T14:14:52.447Z,99283.70
2019-03-12T14:17:23.503Z,99273.91
2019-03-12T14:19:54.111Z,99281.27
2019-03-12T14:22:24.992Z,99277.56
2019-03-12T14:24:55.809Z,99263.55
2019-03-12T14:27:26.696Z,99258.09
2019-03-12T14:29:57.384Z,99249.67
2019-03-12T14:32:28.215Z,99247.16
2019-03-12T14:34:59.307Z,99236.00
2019-03-12T14:37:30.164Z,99233.41
2019-03-12T14:40:00.906Z,99231.30
2019-03-12T14:42:31.922Z,99216.44
2019-03-12T14:45:02.807Z,99214.84
2019-03-12T14:47:34.459Z,99207.67
2019-03-12T14:50:05.708Z,99195.17
2019-03-12T14:52:40.299Z,99192.36
2019-03-12T14:55:11.287Z,99179.25
2019-03-12T14:57:42.208Z,99172.36
2019-03-12T15:00:20.035Z,99169.83
2019-03-12T15:02:51.051Z,99157.14
2019-03-12T15:05:22.400Z,99151.97
2019-03-12T15:07:53.208Z,99151.59
2019-03-12T15:10:24.096Z,99143.20
2019-03-12T15:12:54.914Z,99143.45
2019-03-12T15:15:25.684Z,99137.28
2019-03-12T15:17:56.583Z,99131.56
2019-03-12T15:20:27.467Z,99124.69
2019-03-12T15:22:59.175Z,99125.18
2019-03-12T15:25:30.223Z,99115.33
2019-03-12T15:28:01.126Z,99110.86
2019-03-12T15:30:31.795Z,99096.94
2019-03-12T15:33:02.595Z,99083.41
2019-03-12T15:35:33.874Z,99081.38
2019-03-12T15:38:04.949Z,99066.94
2019-03-12T15:40:35.860Z,99067.28
2019-03-12T15:43:06.767Z,99056.95
2019-03-12T15:45:37.658Z,99057.97
2019-03-12T15:48:08.568Z,99048.93
2019-03-12T15:50:39.534Z,99040.47
2019-03-12T15:53:10.462Z,99035.65
2019-03-12T15:55:42.346Z,99026.09
2019-03-12T15:58:13.032Z,99013.75
2019-03-12T16:00:43.719Z,99005.66
2019-03-12T16:03:14.472Z,98998.11
2019-03-12T16:05:45.308Z,98995.03
2019-03-12T16:08:16.084Z,98989.81
2019-03-12T16:10:57.256Z,98987.16
2019-03-12T16:13:19.930Z,98983.62
2019-03-12T16:15:50.696Z,98976.97
2019-03-12T16:18:21.578Z,98970.73
2019-03-12T16:20:52.471Z,98968.83
2019-03-12T16:23:23.532Z,98960.14
2019-03-12T16:25:54.519Z,98946.72
2019-03-12T16:28:25.288Z,98948.50
2019-03-12T16:30:56.178Z,98938.05
2019-03-12T16:33:27.104Z,98939.06
2019-03-12T16:35:58.035Z,98939.13
2019-03-12T16:38:29.108Z,98925.98
2019-03-12T16:40:59.992Z,98925.37
2019-03-12T16:43:30.767Z,98919.06
2019-03-12T16:46:01.658Z,98909.17
2019-03-12T16:48:32.478Z,98906.88
2019-03-12T16:51:03.474Z,98885.39
2019-03-12T16:53:34.249Z,98887.67
2019-03-12T16:56:04.745Z,98871.38
2019-03-12T16:58:36.491Z,98862.20
2019-03-12T17:01:07.392Z,98865.16
2019-03-12T17:03:38.831Z,98856.45
2019-03-12T17:06:10.631Z,98845.89
2019-03-12T17:08:41.301Z,98839.86
2019-03-12T17:11:12.100Z,98832.20
2019-03-12T17:13:42.991Z,98817.94
2019-03-12T17:16:13.735Z,98814.15
2019-03-12T17:18:44.618Z,98800.91
2019-03-12T17:21:15.508Z,98798.88
2019-03-12T17:23:46.290Z,98784.03
2019-03-12T17:26:17.126Z,98778.20
2019-03-12T17:28:48.090Z,98772.77
2019-03-12T17:31:18.992Z,98770.59
2019-03-12T17:33:49.676Z,98770.77
2019-03-12T17:36:20.526Z,98761.19
2019-03-12T17:38:51.511Z,98755.45
2019-03-12T17:41:22.208Z,98748.27
2019-03-12T17:43:52.989Z,98740.30
2019-03-12T17:46:23.906Z,98742.38
2019-03-12T17:48:54.896Z,98734.63
2019-03-12T17:51:25.688Z,98725.23
2019-03-12T17:53:56.534Z,98734.63
2019-03-12T17:56:27.325Z,98728.66
2019-03-12T17:58:58.218Z,98722.08
2019-03-12T18:01:30.060Z,98721.69
2019-03-12T18:04:01.738Z,98727.40
2019-03-12T18:06:35.173Z,98736.36
2019-03-12T18:09:08.702Z,98734.57
2019-03-12T18:11:39.998Z,98740.56
2019-03-12T18:14:10.788Z,98732.52
2019-03-12T18:16:41.713Z,98719.87
2019-03-12T18:19:12.530Z,98717.73
2019-03-12T18:21:43.335Z,98717.36
2019-03-12T18:24:14.141Z,98710.88
2019-03-12T18:26:45.078Z,98699.42
2019-03-12T18:29:15.881Z,98689.56
2019-03-12T18:31:48.774Z,98681.28
2019-03-12T18:34:19.524Z,98677.11
2019-03-12T18:36:51.332Z,98673.38
2019-03-12T18:39:22.146Z,98662.72
2019-03-12T18:41:55.830Z,98664.06
2019-03-12T18:44:25.872Z,98660.94
2019-03-12T18:46:56.745Z,98653.98
2019-03-12T18:49:27.452Z,98651.61
2019-03-12T18:51:58.288Z,98649.31
2019-03-12T18:54:30.275Z,98650.13
2019-03-12T18:57:01.441Z,98645.37
2019-03-12T18:59:32.193Z,98649.68
2019-03-12T19:02:04.154Z,98644.28
2019-03-12T19:04:34.928Z,98646.01
2019-03-12T19:07:05.829Z,98653.09
2019-03-12T19:09:37.000Z,98650.25
2019-03-12T19:12:07.776Z,98642.97
2019-03-12T19:14:38.655Z,98638.59
2019-03-12T19:17:09.686Z,98634.24
2019-03-12T19:19:40.668Z,98629.33
2019-03-12T19:22:11.624Z,98627.92
2019-03-12T19:24:42.515Z,98618.09
2019-03-12T19:27:13.309Z,98603.03
2019-03-12T19:29:44.212Z,98609.21
2019-03-12T19:32:39.806Z,98594.23
2019-03-12T19:35:12.647Z,98594.80
2019-03-12T19:37:43.516Z,98599.42
2019-03-12T19:40:16.515Z,98594.54
2019-03-12T19:42:47.303Z,98583.05
2019-03-12T19:45:18.084Z,98584.16
2019-03-12T19:47:48.875Z,98574.42
2019-03-12T19:50:19.748Z,98573.34
2019-03-12T19:52:50.685Z,98567.82
2019-03-12T19:55:23.880Z,98572.12
2019-03-12T19:57:54.907Z,98572.72
2019-03-12T20:00:26.991Z,98575.53
2019-03-12T20:03:10.255Z,98570.52
2019-03-12T20:05:32.915Z,98572.83
2019-03-12T20:08:03.780Z,98574.14
2019-03-12T20:11:04.504Z,98569.13
2019-03-12T20:14:34.427Z,98569.27
2019-03-12T20:17:32.422Z,98567.98
2019-03-12T20:21:11.397Z,98576.52
2019-03-12T20:24:29.193Z,98557.72
2019-03-12T20:27:58.841Z,98549.32
2019-03-12T20:31:05.588Z,98566.98
2019-03-12T20:34:31.411Z,98575.87
2019-03-12T20:37:37.936Z,98586.78
2019-03-12T20:40:43.016Z,98584.97
2019-03-12T20:44:02.635Z,98583.39
2019-03-12T20:47:18.883Z,98597.58
2019-03-12T20:50:26.536Z,98591.92
2019-03-12T20:53:32.663Z,98577.09
2019-03-12T20:56:56.036Z,98567.05
2019-03-12T21:00:02.296Z,98573.22
2019-03-12T21:03:27.621Z,98568.29
2019-03-12T21:06:42.072Z,98562.99
2019-03-12T21:09:56.272Z,98556.52
2019-03-12T21:13:22.970Z,98549.36
2019-03-12T21:16:34.573Z,98534.45
2019-03-12T21:19:57.421Z,98534.88
2019-03-12T21:22:53.554Z,98510.95
2019-03-12T21:26:05.502Z,98503.93
2019-03-12T21:29:32.194Z,98500.86
2019-03-12T21:32:03.235Z,98490.27
2019-03-12T21:34:34.176Z,98481.38
2019-03-12T21:37:05.227Z,98477.84
2019-03-12T21:39:36.778Z,98478.77
2019-03-12T21:42:08.212Z,98477.84
2019-03-12T21:44:38.952Z,98470.00
2019-03-12T21:47:09.915Z,98474.67
2019-03-12T21:49:40.720Z,98472.43
2019-03-12T21:52:11.487Z,98473.46
2019-03-12T21:54:42.876Z,98479.48
2019-03-12T21:57:13.822Z,98462.00
2019-03-12T21:59:44.687Z,98447.96
2019-03-12T22:02:15.627Z,98445.20
2019-03-12T22:04:47.376Z,98440.54
2019-03-12T22:07:18.243Z,98427.21
2019-03-12T22:09:48.920Z,98422.11
2019-03-12T22:12:19.788Z,98423.98
2019-03-12T22:14:50.591Z,98425.67
2019-03-12T22:17:21.444Z,98411.70
2019-03-12T22:19:53.192Z,98416.02
2019-03-12T22:22:31.215Z,98426.31
2019-03-12T22:25:01.921Z,98411.28
2019-03-12T22:27:32.695Z,98409.37
2019-03-12T22:30:03.564Z,98426.20
2019-03-12T22:32:36.263Z,98424.35
2019-03-12T22:35:08.064Z,98438.00
2019-03-12T22:37:39.014Z,98448.89
2019-03-12T22:40:11.240Z,98459.07
2019-03-12T22:42:42.058Z,98480.22
2019-03-12T22:45:13.119Z,98500.80
2019-03-12T22:47:43.801Z,98527.50
2019-03-12T22:50:14.789Z,98532.08
2019-03-12T22:52:45.616Z,98576.34
2019-03-12T22:55:16.600Z,98582.83
2019-03-12T22:57:47.477Z,98594.66
2019-03-12T23:00:40.064Z,98634.90
2019-03-12T23:03:28.753Z,98656.93
2019-03-12T23:06:17.491Z,98669.75
2019-03-12T23:09:07.708Z,98682.07
2019-03-12T23:11:40.062Z,98681.88
2019-03-12T23:14:11.031Z,98703.45
2019-03-12T23:16:42.451Z,98714.41
2019-03-12T23:19:13.588Z,98709.38
2019-03-12T23:21:44.487Z,98731.01
2019-03-12T23:24:15.534Z,98736.77
2019-03-12T23:26:46.512Z,98732.66
2019-03-12T23:29:17.663Z,98740.80
2019-03-12T23:31:48.527Z,98747.58
2019-03-12T23:34:19.394Z,98756.30
2019-03-12T23:36:51.336Z,98762.61
2019-03-12T23:39:22.084Z,98763.79
2019-03-12T23:41:53.061Z,98782.36
2019-03-12T23:44:24.916Z,98791.91
2019-03-12T23:46:56.050Z,98816.38
2019-03-12T23:49:27.140Z,98827.92
2019-03-12T23:51:58.139Z,98810.77
2019-03-12T23:54:29.167Z,98819.23
2019-03-12T23:56:59.884Z,98836.20
2019-03-12T23:59:30.715Z,98850.83
